Time;durP1;ratioP1;P1;durP2;ratioP2;P2;SDS_P1;SDS_P2;PMS_P1;PMS_P2;Temp;Humidity;BMP_temperature;BMP_pressure;BME280_temperature;BME280_humidity;BME280_pressure;Samples;Min_cycle;Max_cycle;Signal;HPM_P1;HPM_P2
2022/08/01 00:02:16;;;;;;;7.47;3.83;;;14.60;99.90;;;;;;4992566;28;20116;-56
2022/08/01 00:04:42;;;;;;;7.38;3.90;;;14.60;99.90;;;;;;4991298;28;20133;-56
2022/08/01 00:07:08;;;;;;;7.15;3.90;;;14.50;99.90;;;;;;4992821;28;20110;-56
2022/08/01 00:09:34;;;;;;;6.90;4.53;;;14.50;99.90;;;;;;4974857;28;20077;-56
2022/08/01 00:12:00;;;;;;;9.68;4.18;;;14.40;99.90;;;;;;4992466;28;20027;-56
2022/08/01 00:14:27;;;;;;;9.10;4.35;;;14.50;99.90;;;;;;4992503;28;20023;-56
2022/08/01 00:16:52;;;;;;;11.93;4.60;;;14.40;99.90;;;;;;4992284;28;20050;-57
2022/08/01 00:19:18;;;;;;;9.82;4.10;;;14.30;99.90;;;;;;4992275;28;20069;-56
2022/08/01 00:21:44;;;;;;;7.47;3.65;;;14.20;99.90;;;;;;4992422;28;20733;-57
2022/08/01 00:24:10;;;;;;;9.50;3.67;;;14.20;99.90;;;;;;4974825;28;20045;-57
2022/08/01 00:26:36;;;;;;;8.38;3.42;;;14.20;99.90;;;;;;4992109;28;20481;-56
2022/08/01 00:29:02;;;;;;;7.90;3.33;;;14.20;99.90;;;;;;4992267;28;20018;-56
2022/08/01 00:31:27;;;;;;;6.15;3.08;;;14.10;99.90;;;;;;4992341;28;20722;-56
2022/08/01 00:33:53;;;;;;;6.65;3.30;;;14.10;99.90;;;;;;4992160;28;20026;-56
2022/08/01 00:36:19;;;;;;;8.93;3.97;;;14.10;99.90;;;;;;4992194;28;20053;-56
2022/08/01 00:38:45;;;;;;;10.25;3.80;;;14.10;99.90;;;;;;4991913;28;20033;-55
2022/08/01 00:41:10;;;;;;;7.28;3.47;;;14.10;99.90;;;;;;4991872;28;20030;-57
2022/08/01 00:43:36;;;;;;;6.57;4.20;;;14.10;99.90;;;;;;4992037;28;20117;-56
2022/08/01 00:46:02;;;;;;;6.60;4.05;;;14.00;99.90;;;;;;4974410;28;20044;-56
2022/08/01 00:48:27;;;;;;;11.80;3.90;;;13.90;99.90;;;;;;5005556;28;20077;-57
2022/08/01 00:50:53;;;;;;;6.70;3.83;;;13.90;99.90;;;;;;5011307;28;20222;-56
2022/08/01 00:53:19;;;;;;;6.07;3.65;;;13.90;99.90;;;;;;5011024;28;20112;-57
2022/08/01 00:55:46;;;;;;;7.28;3.72;;;13.90;99.90;;;;;;5011065;28;20133;-56
2022/08/01 00:58:12;;;;;;;8.35;3.70;;;13.90;99.90;;;;;;5010872;28;20054;-57
2022/08/01 01:00:37;;;;;;;8.95;4.53;;;13.90;99.90;;;;;;5009657;28;20066;-57
2022/08/01 01:03:03;;;;;;;9.18;4.05;;;13.80;99.90;;;;;;5011021;28;20038;-56
2022/08/01 01:05:33;;;;;;;11.70;4.78;;;13.90;99.90;;;;;;5011027;28;20018;-56
2022/08/01 01:08:13;;;;;;;7.47;4.00;;;13.90;99.90;;;;;;5010799;28;20077;-57
2022/08/01 01:10:42;;;;;;;11.02;4.63;;;13.90;99.90;;;;;;5010779;28;20037;-57
2022/08/01 01:13:36;;;;;;;16.30;4.72;;;13.90;99.90;;;;;;5010692;28;20084;-57
2022/08/01 01:16:11;;;;;;;10.00;4.13;;;13.90;99.90;;;;;;5010941;28;20381;-56
2022/08/01 01:19:08;;;;;;;8.13;4.50;;;13.90;99.90;;;;;;5010707;28;20034;-56
2022/08/01 01:22:20;;;;;;;10.68;4.85;;;13.70;99.90;;;;;;5010829;28;20044;-57
2022/08/01 01:24:54;;;;;;;12.10;5.32;;;13.80;99.90;;;;;;4969077;28;20046;-56
2022/08/01 01:27:47;;;;;;;9.95;4.60;;;13.70;99.90;;;;;;5010383;28;20018;-57
2022/08/01 01:30:13;;;;;;;5.30;4.25;;;13.70;99.90;;;;;;5010575;28;20037;-56
2022/08/01 01:32:44;;;;;;;7.07;4.18;;;13.70;99.90;;;;;;5010607;28;20036;-57
2022/08/01 01:35:15;;;;;;;13.10;4.75;;;13.70;99.90;;;;;;5010478;28;20051;-57
2022/08/01 01:37:43;;;;;;;8.43;4.28;;;13.70;99.90;;;;;;5010304;28;20030;-57
2022/08/01 01:40:11;;;;;;;10.60;4.30;;;13.60;99.90;;;;;;5010295;28;20393;-57
2022/08/01 01:42:38;;;;;;;9.68;4.55;;;13.60;99.90;;;;;;5010152;28;20030;-57
2022/08/01 01:45:06;;;;;;;12.55;5.50;;;13.70;99.90;;;;;;5008313;28;20034;-56
2022/08/01 01:47:33;;;;;;;5.72;3.85;;;13.70;99.90;;;;;;5010033;28;20073;-56
2022/08/01 01:50:01;;;;;;;6.95;4.28;;;13.50;99.90;;;;;;5010403;28;20026;-57
2022/08/01 01:52:29;;;;;;;6.28;4.35;;;13.60;99.90;;;;;;5010627;28;20385;-56
2022/08/01 01:54:56;;;;;;;8.15;4.28;;;13.50;99.90;;;;;;5010542;28;20041;-57
2022/08/01 01:57:23;;;;;;;6.93;4.10;;;13.50;99.90;;;;;;4992542;28;20481;-57
2022/08/01 01:59:50;;;;;;;7.43;4.00;;;13.40;99.90;;;;;;5010312;28;20048;-56
2022/08/01 02:02:17;;;;;;;7.22;3.80;;;13.40;99.90;;;;;;5010061;28;20033;-56
2022/08/01 02:04:45;;;;;;;5.70;3.33;;;13.30;99.90;;;;;;5010119;28;20121;-57
2022/08/01 02:07:16;;;;;;;7.25;3.80;;;13.30;99.90;;;;;;5010182;28;20041;-57
2022/08/01 02:09:43;;;;;;;6.70;3.75;;;13.30;99.90;;;;;;5010473;28;20034;-56
2022/08/01 02:12:13;;;;;;;12.48;4.00;;;13.20;99.90;;;;;;5010098;28;20029;-57
2022/08/01 02:14:40;;;;;;;8.45;3.80;;;13.20;99.90;;;;;;5010243;28;20034;-57
2022/08/01 02:17:06;;;;;;;10.02;4.07;;;13.20;99.90;;;;;;5009920;28;20026;-57
2022/08/01 02:19:35;;;;;;;6.93;3.28;;;13.20;99.90;;;;;;5010015;28;20029;-57
2022/08/01 02:22:07;;;;;;;5.93;3.03;;;13.20;99.90;;;;;;5010143;28;20449;-57
2022/08/01 02:25:18;;;;;;;6.47;3.00;;;13.20;99.90;;;;;;5010121;28;20038;-57
2022/08/01 02:27:45;;;;;;;5.43;2.88;;;13.20;99.90;;;;;;4929808;29;20040;-57
2022/08/01 02:30:14;;;;;;;6.68;3.10;;;13.10;99.90;;;;;;4999323;28;20048;-57
2022/08/01 02:33:01;;;;;;;9.70;4.05;;;13.00;99.90;;;;;;5009818;28;20477;-57
2022/08/01 02:35:29;;;;;;;8.85;3.55;;;13.10;99.90;;;;;;4993792;28;20188;-57
2022/08/01 02:37:55;;;;;;;;;;;13.10;99.90;;;;;;5014406;28;20066;-57
2022/08/01 02:40:21;;;;;;;6.53;3.53;;;13.00;99.90;;;;;;4996376;28;20344;-57
2022/08/01 02:42:52;;;;;;;8.98;4.25;;;13.00;99.90;;;;;;5013883;28;20041;-57
2022/08/01 02:45:20;;;;;;;8.75;4.20;;;13.00;99.90;;;;;;5013935;28;20109;-57
2022/08/01 02:47:48;;;;;;;10.45;4.20;;;13.00;99.90;;;;;;5007104;28;20134;-57
2022/08/01 02:50:16;;;;;;;8.32;4.07;;;13.00;99.90;;;;;;4994432;28;20385;-57
2022/08/01 02:52:45;;;;;;;9.02;4.78;;;13.00;99.90;;;;;;4994329;28;20034;-57
2022/08/01 02:55:12;;;;;;;6.88;4.35;;;13.00;99.90;;;;;;4960927;28;20053;-57
2022/08/01 02:57:40;;;;;;;8.70;4.18;;;13.00;99.90;;;;;;4994019;28;20038;-57
2022/08/01 03:00:06;;;;;;;8.95;4.55;;;12.90;99.90;;;;;;4994024;28;20027;-57
2022/08/01 03:02:35;;;;;;;9.10;4.75;;;12.90;99.90;;;;;;4992428;28;20066;-57
2022/08/01 03:05:02;;;;;;;18.50;5.35;;;12.90;99.90;;;;;;4993847;28;20035;-57
2022/08/01 03:07:29;;;;;;;8.30;4.07;;;12.90;99.90;;;;;;4994017;28;20141;-57
2022/08/01 03:09:57;;;;;;;10.57;4.22;;;12.90;99.90;;;;;;4993773;28;20121;-57
2022/08/01 03:12:27;;;;;;;9.20;4.35;;;12.90;99.90;;;;;;4993995;28;20059;-57
2022/08/01 03:14:55;;;;;;;8.82;4.47;;;12.90;99.90;;;;;;4993823;28;20541;-57
2022/08/01 03:17:24;;;;;;;8.45;4.35;;;12.90;99.90;;;;;;4993424;28;20030;-57
2022/08/01 03:19:51;;;;;;;8.90;4.95;;;12.90;99.90;;;;;;4993632;28;20036;-57
2022/08/01 03:22:18;;;;;;;7.78;4.70;;;12.80;99.90;;;;;;4993871;28;20601;-57
2022/08/01 03:24:49;;;;;;;7.35;4.10;;;12.80;99.90;;;;;;4993674;28;20045;-57
2022/08/01 03:27:18;;;;;;;15.30;4.75;;;12.80;99.90;;;;;;4993456;28;20895;-56
2022/08/01 03:29:45;;;;;;;10.55;5.32;;;12.80;99.90;;;;;;4993543;28;20117;-57
2022/08/01 03:32:12;;;;;;;15.73;5.70;;;12.80;99.90;;;;;;4993304;28;20033;-57
2022/08/01 03:34:38;;;;;;;10.88;5.22;;;12.80;99.90;;;;;;4993621;28;20113;-57
2022/08/01 03:37:29;;;;;;;8.80;5.32;;;12.70;99.90;;;;;;4993306;28;20058;-57
2022/08/01 03:40:09;;;;;;;13.52;5.90;;;12.50;99.90;;;;;;4985834;28;20037;-57
2022/08/01 03:42:41;;;;;;;10.27;5.90;;;12.60;99.90;;;;;;4975635;28;20538;-57
2022/08/01 03:45:09;;;;;;;10.07;4.78;;;12.70;99.90;;;;;;4993532;28;20496;-57
2022/08/01 03:47:36;;;;;;;9.40;5.40;;;12.80;99.90;;;;;;4997430;28;20103;-57
2022/08/01 03:50:07;;;;;;;7.88;5.32;;;12.80;99.90;;;;;;5012745;28;20052;-57
2022/08/01 03:52:36;;;;;;;8.68;4.57;;;12.80;99.90;;;;;;5012948;28;20034;-56
2022/08/01 03:55:06;;;;;;;10.73;4.88;;;12.80;99.90;;;;;;5012708;28;20049;-57
2022/08/01 03:57:34;;;;;;;7.95;4.20;;;12.80;99.90;;;;;;5012406;28;20481;-59
2022/08/01 04:00:00;;;;;;;8.32;4.88;;;12.80;99.90;;;;;;5012672;28;20428;-57
2022/08/01 04:02:29;;;;;;;10.38;4.28;;;12.80;99.90;;;;;;5012075;28;20092;-57
2022/08/01 04:04:56;;;;;;;8.32;4.95;;;12.90;99.90;;;;;;5001800;28;20045;-57
2022/08/01 04:07:26;;;;;;;11.93;4.78;;;12.90;99.90;;;;;;5012237;28;20034;-56
2022/08/01 04:09:52;;;;;;;9.75;5.00;;;12.80;99.90;;;;;;4994623;28;20037;-57
2022/08/01 04:12:19;;;;;;;9.63;4.90;;;12.90;99.90;;;;;;5012288;28;20420;-56
2022/08/01 04:14:46;;;;;;;7.87;4.73;;;13.00;99.90;;;;;;5012206;28;20814;-56
2022/08/01 04:17:17;;;;;;;7.40;5.13;;;13.00;99.90;;;;;;5012252;28;20026;-57
2022/08/01 04:19:43;;;;;;;8.77;5.65;;;13.00;99.90;;;;;;5012418;28;20359;-57
2022/08/01 04:22:14;;;;;;;10.23;5.47;;;13.00;99.90;;;;;;5012085;28;20030;-56
2022/08/01 04:24:42;;;;;;;9.25;5.00;;;13.00;99.90;;;;;;5012028;28;20038;-57
2022/08/01 04:27:14;;;;;;;6.85;4.30;;;13.00;99.90;;;;;;5012029;28;20022;-57
2022/08/01 04:29:42;;;;;;;9.50;4.75;;;13.10;99.90;;;;;;5012010;28;20034;-57
2022/08/01 04:32:11;;;;;;;11.60;4.88;;;13.10;99.90;;;;;;5010414;28;20030;-57
2022/08/01 04:34:39;;;;;;;9.45;5.18;;;13.10;99.90;;;;;;5012271;28;20075;-57
2022/08/01 04:37:09;;;;;;;11.88;5.88;;;13.10;99.90;;;;;;5012089;28;20037;-57
2022/08/01 04:39:37;;;;;;;12.98;5.82;;;13.10;99.90;;;;;;5011732;28;20049;-56
2022/08/01 04:42:05;;;;;;;11.48;6.35;;;13.20;99.90;;;;;;5011813;28;20477;-56
2022/08/01 04:44:32;;;;;;;11.23;5.75;;;13.40;99.90;;;;;;4994039;28;20045;-56
2022/08/01 04:47:03;;;;;;;12.65;6.85;;;13.30;99.90;;;;;;5011666;28;20029;-57
2022/08/01 04:49:31;;;;;;;11.32;6.15;;;13.50;99.90;;;;;;5011673;28;20034;-57
2022/08/01 04:51:57;;;;;;;12.73;6.85;;;13.50;99.90;;;;;;5004089;28;20421;-56
2022/08/01 04:54:27;;;;;;;13.45;7.18;;;13.60;99.90;;;;;;4993907;28;20119;-56
2022/08/01 04:56:58;;;;;;;17.23;11.45;;;13.60;99.90;;;;;;5011514;28;20021;-56
2022/08/01 04:59:39;;;;;;;25.35;13.95;;;13.60;99.90;;;;;;5010448;28;20536;-56
2022/08/01 05:02:05;;;;;;;26.17;14.15;;;13.70;99.90;;;;;;5011392;28;20092;-56
2022/08/01 05:04:31;;;;;;;23.63;14.90;;;13.70;99.90;;;;;;5011129;28;20034;-56
2022/08/01 05:06:57;;;;;;;24.05;13.60;;;13.70;99.90;;;;;;5011323;28;20046;-56
2022/08/01 05:09:22;;;;;;;20.20;13.93;;;13.80;99.90;;;;;;5011549;28;20424;-57
2022/08/01 05:11:50;;;;;;;;;;;13.80;99.90;;;;;;5011722;28;20050;-57
2022/08/01 05:14:15;;;;;;;21.52;13.32;;;13.90;99.90;;;;;;5011407;28;19956;-60
2022/08/01 05:16:41;;;;;;;22.33;14.88;;;14.00;99.90;;;;;;5011283;28;20026;-57
2022/08/01 05:19:08;;;;;;;21.25;13.85;;;14.10;99.90;;;;;;5011366;28;20080;-56
2022/08/01 05:21:34;;;;;;;28.10;14.57;;;14.10;99.90;;;;;;5010991;28;20080;-56
2022/08/01 05:24:00;;;;;;;22.03;13.90;;;14.20;99.90;;;;;;5011055;28;20046;-57
2022/08/01 05:26:26;;;;;;;26.15;14.00;;;14.30;99.90;;;;;;5011209;28;20030;-56
2022/08/01 05:28:51;;;;;;;17.38;11.50;;;14.40;99.90;;;;;;5011190;28;20026;-57
2022/08/01 05:31:17;;;;;;;18.10;11.35;;;14.50;99.90;;;;;;4993301;28;20112;-56
2022/08/01 05:33:43;;;;;;;17.27;11.57;;;14.50;99.90;;;;;;5010936;28;20101;-56
2022/08/01 05:36:09;;;;;;;17.88;12.20;;;14.60;99.90;;;;;;5011133;28;20025;-56
2022/08/01 05:38:35;;;;;;;19.05;12.18;;;14.80;99.90;;;;;;5010940;28;20393;-57
2022/08/01 05:41:01;;;;;;;15.48;10.82;;;14.90;99.90;;;;;;5010808;28;20025;-57
2022/08/01 05:43:26;;;;;;;20.88;11.30;;;15.00;99.90;;;;;;5010607;28;20739;-57
2022/08/01 05:45:52;;;;;;;15.40;8.40;;;15.10;99.90;;;;;;5010704;28;20030;-56
2022/08/01 05:48:18;;;;;;;15.90;8.77;;;15.10;99.90;;;;;;5010348;28;20057;-56
2022/08/01 05:50:44;;;;;;;18.27;8.38;;;15.20;99.90;;;;;;5010644;28;20026;-56
2022/08/01 05:53:10;;;;;;;19.83;8.07;;;15.50;99.90;;;;;;5009199;28;20096;-56
2022/08/01 05:55:36;;;;;;;10.15;7.10;;;15.60;99.90;;;;;;5010446;28;20366;-57
2022/08/01 05:58:02;;;;;;;11.05;6.07;;;15.70;99.90;;;;;;5010496;28;20041;-55
2022/08/01 06:00:28;;;;;;;11.32;6.13;;;15.80;99.90;;;;;;4993296;28;20076;-56
2022/08/01 06:02:54;;;;;;;7.90;5.97;;;16.00;99.90;;;;;;5010426;28;20026;-57
2022/08/01 06:05:20;;;;;;;10.02;4.93;;;16.00;99.90;;;;;;5010317;28;20034;-56
2022/08/01 06:07:45;;;;;;;8.85;4.72;;;16.30;99.90;;;;;;5010410;28;20029;-56
2022/08/01 06:10:11;;;;;;;9.45;5.35;;;16.60;99.90;;;;;;5010015;28;20080;-55
2022/08/01 06:12:37;;;;;;;8.68;5.10;;;16.70;99.90;;;;;;5010164;28;20033;-55
2022/08/01 06:15:04;;;;;;;14.25;5.28;;;16.90;99.90;;;;;;5010320;28;20030;-58
2022/08/01 06:17:30;;;;;;;11.85;6.00;;;16.90;99.90;;;;;;5010219;28;20340;-56
2022/08/01 06:19:55;;;;;;;10.30;6.00;;;17.00;99.90;;;;;;5010150;28;20481;-56
2022/08/01 06:22:24;;;;;;;8.77;4.00;;;17.00;99.90;;;;;;5010241;28;20092;-56
2022/08/01 06:24:49;;;;;;;8.75;4.65;;;17.10;99.90;;;;;;5010158;28;20042;-56
2022/08/01 06:27:15;;;;;;;10.32;4.40;;;17.20;99.90;;;;;;4992336;28;20040;-56
2022/08/01 06:29:42;;;;;;;8.95;4.70;;;17.30;99.90;;;;;;5010254;28;20105;-56
2022/08/01 06:32:09;;;;;;;;;;;17.40;99.90;;;;;;5010562;28;20113;-57
2022/08/01 06:34:35;;;;;;;8.52;4.60;;;17.50;99.90;;;;;;4992146;28;19909;-56
2022/08/01 06:37:01;;;;;;;8.85;4.85;;;17.50;99.90;;;;;;4976150;28;20034;-57
2022/08/01 06:39:27;;;;;;;9.95;4.75;;;17.60;99.90;;;;;;5010190;28;20026;-56
2022/08/01 06:41:52;;;;;;;7.90;5.28;;;17.80;99.90;;;;;;4992541;28;20386;-56
2022/08/01 06:44:21;;;;;;;9.23;5.32;;;17.80;99.90;;;;;;5009889;28;20061;-55
2022/08/01 06:46:47;;;;;;;11.15;6.05;;;17.90;99.90;;;;;;5009973;28;20105;-56
2022/08/01 06:49:13;;;;;;;9.98;5.22;;;17.90;99.90;;;;;;5009688;28;20125;-56
2022/08/01 06:51:38;;;;;;;9.52;5.40;;;18.00;99.90;;;;;;5009713;28;20341;-56
2022/08/01 06:54:04;;;;;;;9.45;4.43;;;18.00;99.90;;;;;;5009836;28;20030;-56
2022/08/01 06:56:30;;;;;;;9.23;4.88;;;18.10;99.90;;;;;;5009604;28;20026;-56
2022/08/01 06:59:00;;;;;;;10.77;4.68;;;18.10;99.90;;;;;;5009657;28;20057;-56
2022/08/01 07:01:27;;;;;;;9.18;4.35;;;18.20;99.90;;;;;;5009685;28;20045;-56
2022/08/01 07:03:53;;;;;;;;;;;18.30;99.90;;;;;;5009938;28;20096;-55
2022/08/01 07:06:19;;;;;;;9.77;4.25;;;18.40;99.90;;;;;;4992029;28;19905;-55
2022/08/01 07:08:45;;;;;;;6.40;4.22;;;18.50;99.90;;;;;;5009687;28;20033;-56
2022/08/01 07:11:10;;;;;;;6.43;4.00;;;18.50;99.90;;;;;;5009810;28;20046;-56
2022/08/01 07:13:36;;;;;;;7.97;3.63;;;18.70;99.90;;;;;;5009865;28;20029;-56
2022/08/01 07:16:02;;;;;;;7.82;4.30;;;18.70;99.90;;;;;;5009537;28;20031;-56
2022/08/01 07:18:28;;;;;;;5.97;3.55;;;18.90;99.90;;;;;;4991951;28;20081;-55
2022/08/01 07:20:55;;;;;;;11.90;4.22;;;18.90;99.90;;;;;;4991911;28;20064;-56
2022/08/01 07:23:21;;;;;;;7.80;4.18;;;19.00;99.90;;;;;;5012465;28;20370;-57
2022/08/01 07:25:48;;;;;;;8.45;4.47;;;19.00;99.90;;;;;;4995538;28;20532;-56
2022/08/01 07:28:15;;;;;;;8.23;4.18;;;19.10;99.90;;;;;;4995967;28;20022;-56
2022/08/01 07:30:41;;;;;;;7.60;4.33;;;19.10;99.90;;;;;;5013495;28;20061;-56
2022/08/01 07:33:08;;;;;;;9.40;4.40;;;19.20;99.90;;;;;;5013354;28;20038;-56
2022/08/01 07:35:34;;;;;;;10.88;4.57;;;19.30;99.90;;;;;;4995771;28;20033;-56
2022/08/01 07:37:59;;;;;;;11.45;4.78;;;19.50;99.90;;;;;;5012974;28;20421;-57
2022/08/01 07:40:25;;;;;;;12.07;4.95;;;19.50;99.90;;;;;;5013236;28;20034;-59
2022/08/01 07:42:51;;;;;;;11.00;4.88;;;19.50;99.90;;;;;;5007268;28;20080;-55
2022/08/01 07:45:17;;;;;;;11.38;4.07;;;19.60;99.90;;;;;;5001895;28;20062;-56
2022/08/01 07:47:44;;;;;;;7.13;3.67;;;19.70;99.90;;;;;;5001259;28;20057;-56
2022/08/01 07:50:10;;;;;;;8.30;4.10;;;19.80;99.90;;;;;;5002939;28;20029;-56
2022/08/01 07:52:36;;;;;;;12.70;3.78;;;19.80;99.90;;;;;;4999877;28;20037;-58
2022/08/01 07:55:05;;;;;;;8.13;4.07;;;20.00;99.90;;;;;;5000228;28;20065;-55
2022/08/01 07:57:31;;;;;;;8.43;4.07;;;19.90;99.90;;;;;;4981404;28;20045;-57
2022/08/01 07:59:56;;;;;;;11.30;4.55;;;19.90;99.90;;;;;;5003426;28;20377;-56
2022/08/01 08:02:22;;;;;;;14.00;4.10;;;20.00;99.90;;;;;;4999966;28;20646;-56
2022/08/01 08:04:48;;;;;;;10.10;3.55;;;20.20;99.90;;;;;;5004846;28;20037;-56
2022/08/01 08:07:14;;;;;;;8.13;3.53;;;20.30;99.90;;;;;;5000401;28;20102;-57
2022/08/01 08:09:40;;;;;;;5.38;3.80;;;20.40;99.90;;;;;;4984754;28;20041;-55
2022/08/01 08:12:06;;;;;;;9.98;4.28;;;20.40;99.90;;;;;;5002272;28;20026;-55
2022/08/01 08:14:32;;;;;;;11.80;5.07;;;20.50;99.90;;;;;;5006682;28;20030;-56
2022/08/01 08:16:57;;;;;;;12.20;4.20;;;20.50;99.90;;;;;;5012655;28;20026;-56
2022/08/01 08:19:23;;;;;;;9.60;4.05;;;20.50;99.90;;;;;;4994402;28;20022;-56
2022/08/01 08:21:49;;;;;;;8.55;4.32;;;20.60;99.90;;;;;;5000960;28;20034;-56
2022/08/01 08:24:20;;;;;;;7.45;3.38;;;20.50;99.90;;;;;;5001986;28;20034;-57
2022/08/01 08:26:51;;;;;;;7.05;3.40;;;20.80;99.90;;;;;;5001224;28;20053;-56
2022/08/01 08:29:17;;;;;;;7.82;3.90;;;20.70;99.90;;;;;;5002603;28;20026;-56
2022/08/01 08:31:43;;;;;;;9.65;3.97;;;20.90;99.90;;;;;;5001531;28;20096;-57
2022/08/01 08:34:12;;;;;;;8.13;4.03;;;20.80;99.90;;;;;;4983823;28;20038;-58
2022/08/01 08:36:38;;;;;;;10.57;4.32;;;20.80;99.90;;;;;;4985093;28;20029;-55
2022/08/01 08:39:05;;;;;;;10.68;3.88;;;20.80;99.90;;;;;;5001121;28;20117;-56
2022/08/01 08:41:35;;;;;;;9.10;4.07;;;21.00;99.90;;;;;;4998821;28;20018;-57
2022/08/01 08:44:02;;;;;;;6.35;3.25;;;21.00;99.90;;;;;;5002438;28;20145;-58
2022/08/01 08:46:28;;;;;;;;;;;21.10;99.90;;;;;;4998873;28;20058;-56
2022/08/01 08:48:55;;;;;;;6.75;3.40;;;21.20;99.90;;;;;;4984027;28;19932;-57
2022/08/01 08:51:23;;;;;;;8.88;3.53;;;21.20;99.90;;;;;;5002005;28;20033;-56
2022/08/01 08:53:51;;;;;;;6.15;3.28;;;21.20;99.90;;;;;;5001679;28;20022;-57
2022/08/01 08:56:18;;;;;;;6.82;3.30;;;21.30;99.90;;;;;;5000271;28;20030;-57
2022/08/01 08:58:45;;;;;;;7.97;3.25;;;21.20;99.90;;;;;;5000193;28;20014;-55
2022/08/01 09:01:12;;;;;;;7.82;3.28;;;21.30;99.90;;;;;;4999897;28;20032;-57
2022/08/01 09:03:38;;;;;;;6.78;3.20;;;21.30;99.90;;;;;;5000043;28;20064;-56
2022/08/01 09:06:04;;;;;;;6.40;3.23;;;21.10;99.90;;;;;;5000056;28;20029;-57
2022/08/01 09:08:30;;;;;;;4.55;2.75;;;21.10;99.90;;;;;;5002140;28;20264;-56
2022/08/01 09:10:56;;;;;;;6.78;2.83;;;21.20;99.90;;;;;;5004031;28;20104;-56
2022/08/01 09:13:22;;;;;;;5.97;3.28;;;21.10;99.90;;;;;;5001233;28;20110;-56
2022/08/01 09:15:59;;;;;;;5.72;2.80;;;21.20;99.90;;;;;;4999827;28;20022;-57
2022/08/01 09:18:42;;;;;;;6.88;3.80;;;21.20;99.90;;;;;;5001306;28;20030;-57
2022/08/01 09:21:16;;;;;;;6.78;3.58;;;21.20;99.90;;;;;;4991536;28;20065;-57
2022/08/01 09:23:48;;;;;;;5.43;3.00;;;21.00;99.90;;;;;;4991649;28;20042;-57
2022/08/01 09:26:16;;;;;;;7.80;3.42;;;21.00;99.90;;;;;;5001892;28;20050;-57
2022/08/01 09:28:43;;;;;;;4.78;3.30;;;21.00;99.90;;;;;;4997251;28;20452;-55
2022/08/01 09:31:19;;;;;;;7.18;3.13;;;21.00;99.90;;;;;;4999970;28;20025;-56
2022/08/01 09:33:57;;;;;;;7.78;3.03;;;21.00;99.90;;;;;;5000198;28;20508;-57
2022/08/01 09:36:26;;;;;;;8.48;3.50;;;21.00;99.90;;;;;;5003063;28;20489;-57
2022/08/01 09:38:54;;;;;;;4.78;3.45;;;21.00;99.90;;;;;;4979098;28;20042;-55
2022/08/01 09:41:31;;;;;;;5.63;3.22;;;21.00;99.90;;;;;;4997039;28;20490;-58
2022/08/01 09:43:57;;;;;;;5.85;3.42;;;21.10;99.90;;;;;;4999658;28;20486;-56
2022/08/01 09:46:24;;;;;;;6.90;3.30;;;21.10;99.90;;;;;;4973469;28;20494;-56
2022/08/01 09:48:59;;;;;;;7.20;3.97;;;21.10;99.90;;;;;;4990996;28;20132;-57
2022/08/01 09:51:39;;;;;;;6.50;3.40;;;21.10;99.90;;;;;;4993844;28;20740;-57
2022/08/01 09:54:06;;;;;;;5.72;3.58;;;21.20;99.90;;;;;;4991173;28;20028;-57
2022/08/01 09:56:42;;;;;;;6.18;3.65;;;21.30;99.90;;;;;;4993648;28;20030;-55
2022/08/01 09:59:09;;;;;;;8.30;4.65;;;21.50;99.90;;;;;;4991018;28;20089;-58
2022/08/01 10:01:48;;;;;;;6.97;4.20;;;21.50;99.90;;;;;;4990995;28;20481;-57
2022/08/01 10:04:21;;;;;;;5.50;3.63;;;21.50;99.90;;;;;;4990720;28;20481;-57
2022/08/01 10:06:52;;;;;;;7.68;3.78;;;21.60;99.90;;;;;;4990789;28;20022;-56
2022/08/01 10:09:32;;;;;;;7.95;4.35;;;21.60;99.90;;;;;;4990900;28;20033;-56
2022/08/01 10:11:59;;;;;;;8.55;3.85;;;21.50;99.90;;;;;;5009131;28;20076;-56
2022/08/01 10:14:27;;;;;;;7.70;3.97;;;21.60;99.90;;;;;;5010086;28;20025;-56
2022/08/01 10:16:54;;;;;;;10.35;5.13;;;21.60;99.90;;;;;;5010453;28;20113;-56
2022/08/01 10:19:21;;;;;;;;;;;21.70;99.90;;;;;;5010870;28;20022;-57
2022/08/01 10:21:50;;;;;;;9.35;4.32;;;21.70;99.90;;;;;;5010381;28;20426;-56
2022/08/01 10:24:17;;;;;;;7.95;4.05;;;21.70;99.90;;;;;;5009990;28;20041;-57
2022/08/01 10:26:43;;;;;;;;;;;21.70;99.90;;;;;;5009775;28;20600;-57
2022/08/01 10:29:09;;;;;;;7.38;4.50;;;21.70;99.90;;;;;;5008592;28;19968;-56
2022/08/01 10:31:36;;;;;;;9.43;4.50;;;21.90;99.90;;;;;;5009641;28;20026;-56
2022/08/01 10:34:02;;;;;;;13.38;4.63;;;21.90;99.90;;;;;;5008136;28;20280;-57
2022/08/01 10:36:31;;;;;;;8.97;4.83;;;22.00;99.90;;;;;;4992001;28;20037;-56
2022/08/01 10:38:58;;;;;;;9.23;4.93;;;21.90;99.90;;;;;;5009834;28;20109;-57
2022/08/01 10:41:25;;;;;;;7.38;4.13;;;21.90;99.90;;;;;;5009270;28;20036;-56
2022/08/01 10:43:51;;;;;;;6.38;4.22;;;22.00;99.90;;;;;;5009578;28;20045;-56
2022/08/01 10:46:19;;;;;;;13.00;5.10;;;22.10;99.90;;;;;;5005263;28;20022;-56
2022/08/01 10:48:49;;;;;;;7.55;4.22;;;22.20;99.90;;;;;;5021422;28;20691;-56
2022/08/01 10:51:16;;;;;;;12.77;4.90;;;22.20;99.90;;;;;;5016024;28;20552;-56
2022/08/01 10:53:53;;;;;;;6.60;4.72;;;22.20;99.90;;;;;;5001958;28;20386;-56
2022/08/01 10:56:20;;;;;;;9.90;5.38;;;22.20;99.90;;;;;;5009043;28;20034;-56
2022/08/01 10:58:48;;;;;;;8.35;5.25;;;22.20;99.90;;;;;;5003713;28;20030;-56
2022/08/01 11:01:31;;;;;;;10.43;5.80;;;22.10;99.90;;;;;;5002182;28;20038;-61
2022/08/01 11:04:00;;;;;;;15.00;5.55;;;22.00;99.90;;;;;;5003503;28;20042;-55
2022/08/01 11:06:34;;;;;;;14.27;5.65;;;22.00;99.90;;;;;;5003284;28;20030;-56
2022/08/01 11:09:27;;;;;;;8.88;6.13;;;21.90;99.90;;;;;;5003662;28;20026;-55
2022/08/01 11:12:01;;;;;;;10.55;5.55;;;21.80;99.90;;;;;;5000963;28;20038;-57
2022/08/01 11:14:27;;;;;;;9.63;5.68;;;21.80;99.90;;;;;;5002600;28;20132;-56
2022/08/01 11:16:53;;;;;;;10.60;5.80;;;21.70;99.90;;;;;;5000691;28;20576;-57
2022/08/01 11:19:19;;;;;;;8.23;5.13;;;21.80;99.90;;;;;;5012325;28;20026;-56
2022/08/01 11:21:56;;;;;;;9.30;5.75;;;21.70;99.90;;;;;;5017679;28;20025;-56
2022/08/01 11:25:01;;;;;;;8.57;5.93;;;21.50;99.90;;;;;;5021262;28;20062;-56
2022/08/01 11:27:31;;;;;;;8.27;5.78;;;21.30;99.90;;;;;;5019948;28;20029;-56
2022/08/01 11:30:09;;;;;;;9.93;5.88;;;21.20;99.90;;;;;;5025673;28;20492;-56
2022/08/01 11:32:53;;;;;;;9.38;6.18;;;21.10;99.90;;;;;;5032778;28;20076;-55
2022/08/01 11:35:20;;;;;;;21.88;6.20;;;21.10;99.90;;;;;;5027984;28;20069;-55
2022/08/01 11:37:47;;;;;;;9.32;6.60;;;21.00;99.90;;;;;;5020191;28;20035;-56
2022/08/01 11:40:22;;;;;;;8.90;6.47;;;21.10;99.90;;;;;;5012952;28;20129;-56
2022/08/01 11:42:49;;;;;;;9.65;5.78;;;21.10;99.90;;;;;;5017922;28;20021;-56
2022/08/01 11:45:15;;;;;;;;;;;21.10;99.90;;;;;;5032699;28;20044;-56
2022/08/01 11:47:51;;;;;;;11.68;7.07;;;21.10;99.90;;;;;;5014911;28;19917;-56
2022/08/01 11:50:30;;;;;;;12.23;6.10;;;21.10;99.90;;;;;;5012613;28;20034;-56
2022/08/01 11:53:01;;;;;;;11.57;5.80;;;21.30;99.90;;;;;;5019845;28;20033;-56
2022/08/01 11:55:28;;;;;;;9.85;5.68;;;21.50;99.90;;;;;;5018764;28;20025;-56
2022/08/01 11:58:06;;;;;;;12.00;4.65;;;21.80;99.90;;;;;;5020734;28;20099;-55
2022/08/01 12:00:33;;;;;;;5.72;3.65;;;21.90;99.90;;;;;;5021763;28;20418;-56
2022/08/01 12:03:02;;;;;;;5.35;3.47;;;22.10;99.90;;;;;;5027361;28;20697;-56
2022/08/01 12:05:30;;;;;;;7.03;3.88;;;22.00;99.90;;;;;;5014398;28;20037;-56
2022/08/01 12:07:56;;;;;;;6.47;4.10;;;22.10;99.90;;;;;;5031679;28;20056;-56
2022/08/01 12:10:28;;;;;;;5.53;3.67;;;22.20;99.90;;;;;;5016723;28;20030;-56
2022/08/01 12:13:03;;;;;;;7.15;4.13;;;22.10;99.90;;;;;;4995278;28;20026;-57
2022/08/01 12:15:37;;;;;;;6.63;3.90;;;22.20;99.90;;;;;;5012446;28;20109;-56
2022/08/01 12:18:07;;;;;;;11.88;4.85;;;22.30;99.90;;;;;;5012453;28;20030;-56
2022/08/01 12:20:40;;;;;;;7.30;4.63;;;22.50;99.90;;;;;;5012259;28;20056;-56
2022/08/01 12:23:11;;;;;;;6.75;3.78;;;22.60;99.90;;;;;;5019574;28;20091;-56
2022/08/01 12:25:43;;;;;;;5.78;4.20;;;22.60;99.90;;;;;;5014591;28;20133;-57
2022/08/01 12:28:10;;;;;;;5.82;3.92;;;22.70;99.90;;;;;;5010525;28;20022;-57
2022/08/01 12:30:37;;;;;;;6.53;4.20;;;23.10;99.90;;;;;;5012044;28;20034;-56
2022/08/01 12:33:08;;;;;;;7.63;3.47;;;23.00;99.90;;;;;;5012133;28;20520;-57
2022/08/01 12:35:36;;;;;;;7.30;4.13;;;23.30;99.90;;;;;;5015584;28;20760;-56
2022/08/01 12:38:13;;;;;;;5.95;3.72;;;23.40;99.90;;;;;;5017178;28;20092;-55
2022/08/01 12:40:42;;;;;;;5.97;3.03;;;23.50;99.90;;;;;;5014368;28;20478;-56
2022/08/01 12:43:10;;;;;;;5.40;3.08;;;23.40;99.90;;;;;;5011743;28;20046;-56
2022/08/01 12:45:43;;;;;;;4.68;3.40;;;23.50;99.90;;;;;;5011709;28;20041;-55
2022/08/01 12:48:13;;;;;;;6.90;3.10;;;24.00;99.90;;;;;;5018022;28;20061;-55
2022/08/01 12:50:42;;;;;;;6.10;3.53;;;24.10;99.90;;;;;;5027817;28;20671;-55
2022/08/01 12:53:12;;;;;;;5.45;3.60;;;24.20;99.90;;;;;;5018038;28;20030;-56
2022/08/01 12:55:45;;;;;;;3.65;3.28;;;24.60;99.90;;;;;;5019377;28;20026;-56